Time;durP1;ratioP1;P1;durP2;ratioP2;P2;SDS_P1;SDS_P2;PMS_P1;PMS_P2;Temp;Humidity;BMP_temperature;BMP_pressure;BME280_temperature;BME280_humidity;BME280_pressure;Samples;Min_cycle;Max_cycle;Signal;HPM_P1;HPM_P2
2024/03/21 00:00:10;;;;;;;29.48;21.25;;;;;;;12.53;100.00;99056.16;4973047;28;20038;-70
2024/03/21 00:02:46;;;;;;;29.77;21.80;;;;;;;12.38;100.00;99021.94;4985769;28;20048;-69
2024/03/21 00:05:14;;;;;;;31.45;21.73;;;;;;;12.33;100.00;99017.13;4988944;28;20358;-69
2024/03/21 00:07:46;;;;;;;29.02;21.17;;;;;;;12.57;100.00;99050.47;4974417;28;20037;-70
2024/03/21 00:10:16;;;;;;;30.15;21.20;;;;;;;12.69;100.00;99056.34;4978021;28;20141;-70
2024/03/21 00:12:42;;;;;;;32.35;21.13;;;;;;;12.39;100.00;99007.91;4975050;28;20038;-70
2024/03/21 00:15:08;;;;;;;29.23;21.50;;;;;;;12.64;100.00;99059.38;4972015;28;20274;-70
2024/03/21 00:17:34;;;;;;;31.15;21.40;;;;;;;12.65;100.00;99060.22;4972663;28;20045;-69
2024/03/21 00:20:04;;;;;;;30.38;21.20;;;;;;;12.68;100.00;99065.13;4989918;28;20053;-69
2024/03/21 00:22:29;;;;;;;29.67;21.45;;;;;;;12.57;100.00;99065.31;4972322;28;20037;-69
2024/03/21 00:24:55;;;;;;;31.00;21.98;;;;;;;12.27;100.00;99060.25;4978811;28;20108;-69
2024/03/21 00:27:20;;;;;;;29.48;21.67;;;;;;;12.28;100.00;99051.50;4973973;28;20042;-69
2024/03/21 00:29:49;;;;;;;29.98;22.08;;;;;;;12.23;100.00;99032.84;4981176;28;20768;-72
2024/03/21 00:32:15;;;;;;;30.70;21.37;;;;;;;12.43;100.00;99049.22;4959782;28;20129;-71
2024/03/21 00:34:41;;;;;;;30.00;19.95;;;;;;;12.44;100.00;99058.66;4975075;28;20277;-68
2024/03/21 00:37:08;;;;;;;27.83;20.77;;;;;;;12.15;100.00;99050.97;4978424;28;20699;-69
2024/03/21 00:39:34;;;;;;;29.95;21.17;;;;;;;12.20;100.00;99063.59;4979694;28;20535;-69
2024/03/21 00:42:00;;;;;;;29.50;21.60;;;;;;;12.08;100.00;99044.69;4974101;28;20061;-70
2024/03/21 00:44:25;;;;;;;29.48;20.08;;;;;;;12.07;100.00;99051.69;4976164;28;20034;-69
2024/03/21 00:46:51;;;;;;;28.67;20.27;;;;;;;12.06;100.00;99051.84;4973067;28;20037;-68
2024/03/21 00:49:17;;;;;;;28.92;20.63;;;;;;;12.17;100.00;99037.81;4959946;28;20037;-69
2024/03/21 00:51:45;;;;;;;28.80;20.25;;;;;;;12.23;100.00;99032.00;4987802;28;21583;-69
2024/03/21 00:54:13;;;;;;;27.58;19.75;;;;;;;12.20;100.00;99027.09;4977222;28;20108;-69
2024/03/21 00:56:40;;;;;;;28.15;20.10;;;;;;;12.23;100.00;99032.84;4958253;28;20042;-70
2024/03/21 00:59:06;;;;;;;28.00;19.67;;;;;;;12.29;100.00;99031.44;4981865;28;20516;-70
2024/03/21 01:01:32;;;;;;;31.15;20.52;;;;;;;12.20;100.00;99021.88;4964158;28;20034;-69
2024/03/21 01:03:57;;;;;;;30.85;20.83;;;;;;;12.09;100.00;99025.50;4975065;28;20498;-69
2024/03/21 01:06:22;;;;;;;29.42;20.65;;;;;;;12.04;100.00;99017.28;4956706;28;20606;-69
2024/03/21 01:08:48;;;;;;;29.40;20.15;;;;;;;12.19;100.00;99015.00;4982988;28;20688;-69
2024/03/21 01:11:14;;;;;;;26.63;19.92;;;;;;;12.20;100.00;99011.47;4968319;28;20132;-69
2024/03/21 01:13:40;;;;;;;27.50;19.83;;;;;;;12.03;100.00;98979.16;4972749;28;20041;-70
2024/03/21 01:16:08;;;;;;;28.52;20.15;;;;;;;12.16;100.00;99005.72;4975211;28;20606;-69
2024/03/21 01:18:38;;;;;;;27.85;20.42;;;;;;;12.02;100.00;99012.22;4977996;28;20046;-69
2024/03/21 01:21:05;;;;;;;31.23;20.98;;;;;;;11.84;100.00;99008.69;4959637;28;20042;-69
2024/03/21 01:23:31;;;;;;;29.48;19.88;;;;;;;11.77;100.00;98999.81;4986712;28;20033;-69
2024/03/21 01:25:57;;;;;;;28.50;19.77;;;;;;;11.85;100.00;98994.72;4966463;28;20041;-69
2024/03/21 01:28:24;;;;;;;28.95;20.33;;;;;;;11.65;100.00;98960.09;4978179;28;20038;-69
2024/03/21 01:30:50;;;;;;;29.17;20.73;;;;;;;11.86;100.00;98997.16;4996465;28;20087;-70
2024/03/21 01:33:19;;;;;;;30.05;21.48;;;;;;;11.96;100.00;99001.56;4977990;28;20037;-70
2024/03/21 01:35:44;;;;;;;29.25;20.95;;;;;;;11.98;100.00;99007.44;4982698;28;20058;-69
2024/03/21 01:38:13;;;;;;;30.38;20.02;;;;;;;11.98;100.00;99003.06;4966244;28;20239;-70
2024/03/21 01:40:39;;;;;;;29.67;19.83;;;;;;;11.97;100.00;98990.97;4965648;28;20622;-70
2024/03/21 01:43:24;;;;;;;27.98;19.98;;;;;;;11.80;100.00;98991.72;4974878;28;20097;-70
2024/03/21 01:46:16;;;;;;;28.70;19.60;;;;;;;11.92;100.00;98995.81;4976627;28;20041;-70
2024/03/21 01:48:43;;;;;;;27.55;20.15;;;;;;;11.91;100.00;99001.97;4968670;28;20038;-70
2024/03/21 01:51:09;;;;;;;30.40;20.27;;;;;;;11.85;100.00;98997.31;4958059;28;20899;-70
2024/03/21 01:53:37;;;;;;;30.55;20.88;;;;;;;11.81;100.00;98988.13;4976112;28;20038;-70
2024/03/21 01:56:04;;;;;;;28.90;19.90;;;;;;;11.86;100.00;98984.13;4964062;28;20038;-70
2024/03/21 01:58:29;;;;;;;28.80;20.17;;;;;;;11.90;100.00;98989.91;4976278;28;20095;-70
2024/03/21 02:00:55;;;;;;;29.30;19.80;;;;;;;11.90;100.00;98988.13;4982966;28;20045;-69
2024/03/21 02:03:20;;;;;;;30.90;20.50;;;;;;;11.82;100.00;98972.34;4978057;28;20100;-70
2024/03/21 02:05:46;;;;;;;26.90;18.90;;;;;;;11.87;100.00;98988.38;4986080;28;20032;-69
2024/03/21 02:08:12;;;;;;;27.08;19.40;;;;;;;11.81;100.00;98978.56;4967635;28;20030;-69
2024/03/21 02:10:40;;;;;;;32.10;20.83;;;;;;;11.58;100.00;98972.88;4989947;28;20515;-71
2024/03/21 02:13:06;;;;;;;28.55;19.65;;;;;;;11.69;100.00;98971.88;4976221;28;20053;-70
2024/03/21 02:15:33;;;;;;;28.98;18.38;;;;;;;11.49;100.00;98927.66;4982050;28;20697;-71
2024/03/21 02:17:59;;;;;;;27.13;19.77;;;;;;;11.73;100.00;98963.63;4969248;28;20093;-69
2024/03/21 02:20:27;;;;;;;26.92;19.73;;;;;;;11.50;100.00;98926.72;4964049;28;20029;-69
2024/03/21 02:22:52;;;;;;;28.30;19.48;;;;;;;11.70;100.00;98957.88;4980115;28;20063;-70
2024/03/21 02:25:18;;;;;;;28.58;19.38;;;;;;;11.76;100.00;98966.91;4971043;28;20505;-71
2024/03/21 02:27:45;;;;;;;26.38;19.63;;;;;;;11.78;100.00;98954.56;4970886;28;20038;-70
2024/03/21 02:30:11;;;;;;;28.77;20.48;;;;;;;11.78;100.00;98968.41;4969036;28;20030;-70
2024/03/21 02:32:37;;;;;;;27.63;19.58;;;;;;;11.61;100.00;98933.53;4983583;28;20054;-70
2024/03/21 02:35:09;;;;;;;27.52;18.88;;;;;;;11.71;100.00;98962.94;4970031;28;20050;-70
2024/03/21 02:37:35;;;;;;;26.73;19.15;;;;;;;11.70;100.00;98963.06;4983717;28;20137;-70
2024/03/21 02:40:00;;;;;;;27.55;19.52;;;;;;;11.39;100.00;98918.25;4967961;28;20074;-70
2024/03/21 02:42:26;;;;;;;29.52;19.48;;;;;;;11.68;100.00;98958.03;4990880;28;20057;-70
2024/03/21 02:44:51;;;;;;;27.63;19.83;;;;;;;11.59;100.00;98958.91;4978303;28;20026;-70
2024/03/21 02:47:18;;;;;;;29.10;19.42;;;;;;;11.50;100.00;98955.34;4991760;28;20065;-69
2024/03/21 02:49:43;;;;;;;29.02;19.80;;;;;;;11.48;100.00;98952.06;4973174;28;20310;-70
2024/03/21 02:52:09;;;;;;;29.10;18.98;;;;;;;11.45;100.00;98948.94;4981197;28;20698;-71
2024/03/21 02:54:35;;;;;;;30.17;20.38;;;;;;;11.40;100.00;98938.13;4983007;28;20033;-70
2024/03/21 02:57:04;;;;;;;27.80;19.98;;;;;;;11.53;100.00;98947.22;4959261;28;20041;-69
2024/03/21 02:59:32;;;;;;;28.35;19.90;;;;;;;11.47;100.00;98950.41;4963009;28;20171;-69
2024/03/21 03:01:57;;;;;;;28.65;19.83;;;;;;;11.46;100.00;98948.78;4983998;28;20026;-69
2024/03/21 03:04:23;;;;;;;30.35;19.95;;;;;;;11.37;100.00;98944.41;4974570;28;20034;-69
2024/03/21 03:06:51;;;;;;;27.52;18.77;;;;;;;11.35;100.00;98959.34;5000487;28;20282;-71
2024/03/21 03:09:16;;;;;;;27.08;18.75;;;;;;;11.32;100.00;98950.06;4973147;28;20038;-70
2024/03/21 03:11:44;;;;;;;28.98;19.23;;;;;;;11.22;100.00;98946.66;4976867;28;20373;-70
2024/03/21 03:14:12;;;;;;;28.55;19.20;;;;;;;11.21;100.00;98955.44;5006001;28;20568;-69
2024/03/21 03:16:37;;;;;;;30.20;19.20;;;;;;;11.13;100.00;98945.72;4982863;28;20049;-69
2024/03/21 03:19:05;;;;;;;25.70;17.80;;;;;;;10.89;100.00;98907.13;4982779;28;20096;-69
2024/03/21 03:21:31;;;;;;;28.10;19.42;;;;;;;10.86;100.00;98899.63;4978838;28;20594;-70
2024/03/21 03:23:58;;;;;;;29.08;18.70;;;;;;;11.13;100.00;98955.28;4970430;28;20084;-70
2024/03/21 03:26:26;;;;;;;29.45;18.42;;;;;;;11.00;100.00;98952.19;4984469;28;20564;-70
2024/03/21 03:28:52;;;;;;;28.63;18.85;;;;;;;10.93;100.00;98944.09;4964272;28;20240;-70
2024/03/21 03:31:19;;;;;;;27.48;19.00;;;;;;;10.58;100.00;98943.69;4979467;28;20037;-70
2024/03/21 03:36:32;;;;;;;28.23;18.88;;;;;;;10.48;100.00;98897.88;4979485;28;20058;-70
2024/03/21 03:38:58;;;;;;;28.75;19.40;;;;;;;10.61;100.00;98905.41;4984546;28;20124;-70
2024/03/21 03:41:24;;;;;;;29.52;19.13;;;;;;;10.65;100.00;98941.38;4976681;28;20048;-70
2024/03/21 03:43:51;;;;;;;29.48;19.55;;;;;;;10.30;100.00;98874.31;4984517;28;20694;-71
2024/03/21 03:46:19;;;;;;;28.73;19.33;;;;;;;10.74;100.00;98924.13;4965204;28;20057;-70
2024/03/21 03:48:47;;;;;;;28.90;19.95;;;;;;;10.60;100.00;98917.56;4969163;28;20046;-70
2024/03/21 03:51:12;;;;;;;29.20;19.23;;;;;;;10.51;100.00;98900.19;4977078;28;20046;-70
2024/03/21 03:53:38;;;;;;;29.52;19.67;;;;;;;10.53;100.00;98896.50;4977568;28;20044;-69
2024/03/21 03:56:06;;;;;;;34.63;21.33;;;;;;;10.68;100.00;98915.09;4986194;28;20026;-69
2024/03/21 03:58:31;;;;;;;28.65;19.90;;;;;;;10.74;100.00;98924.94;4984218;28;20065;-70
2024/03/21 04:01:01;;;;;;;30.35;20.20;;;;;;;10.83;100.00;98925.09;4978001;28;20137;-70
2024/03/21 04:03:27;;;;;;;30.77;20.45;;;;;;;10.75;100.00;98923.16;4956945;28;20030;-70
2024/03/21 04:06:01;;;;;;;33.30;20.95;;;;;;;10.37;100.00;98906.63;4960936;28;20041;-70
2024/03/21 04:08:26;;;;;;;28.58;19.67;;;;;;;10.55;100.00;98910.19;4979163;28;20041;-70
2024/03/21 04:10:57;;;;;;;30.15;18.88;;;;;;;10.54;100.00;98912.91;4954014;28;20046;-70
2024/03/21 04:13:22;;;;;;;31.42;19.85;;;;;;;10.33;100.00;98874.88;4976447;28;20041;-70
2024/03/21 04:15:56;;;;;;;29.85;20.50;;;;;;;10.59;100.00;98913.34;4992207;28;20041;-69
2024/03/21 04:18:24;;;;;;;32.88;21.40;;;;;;;10.74;100.00;98922.34;4981058;28;20049;-68
2024/03/21 04:20:50;;;;;;;31.40;20.67;;;;;;;10.72;100.00;98910.44;4962645;28;20084;-70
2024/03/21 04:23:18;;;;;;;32.30;19.88;;;;;;;10.68;100.00;98935.91;4964563;28;20053;-70
2024/03/21 04:25:43;;;;;;;32.03;19.92;;;;;;;10.74;100.00;98944.94;4964032;28;20068;-70
2024/03/21 04:28:09;;;;;;;31.02;19.95;;;;;;;10.63;100.00;98939.88;4977636;28;20121;-69
2024/03/21 04:30:36;;;;;;;33.28;20.70;;;;;;;10.60;100.00;98938.34;4975527;28;20145;-70
2024/03/21 04:33:05;;;;;;;32.05;19.80;;;;;;;10.20;100.00;98892.47;4961092;28;20050;-70
2024/03/21 04:35:32;;;;;;;31.90;20.20;;;;;;;10.43;100.00;98937.25;4961495;28;20100;-70
2024/03/21 04:37:59;;;;;;;29.08;20.05;;;;;;;10.47;100.00;98943.81;4994677;28;20730;-71
2024/03/21 04:40:27;;;;;;;32.03;20.35;;;;;;;10.54;100.00;98944.13;4972124;28;20035;-71
2024/03/21 04:42:55;;;;;;;32.70;20.85;;;;;;;10.54;100.00;98944.94;4974814;28;20073;-71
2024/03/21 04:45:22;;;;;;;35.33;20.55;;;;;;;10.42;100.00;98938.22;4976846;28;20049;-71
2024/03/21 04:47:48;;;;;;;32.08;20.55;;;;;;;10.21;100.00;98886.34;4966554;28;20553;-72
2024/03/21 04:50:16;;;;;;;32.72;20.58;;;;;;;10.31;100.00;98902.78;4981248;28;20248;-72
2024/03/21 04:52:41;;;;;;;28.95;19.48;;;;;;;10.52;100.00;98933.03;4962473;28;20041;-68
2024/03/21 04:55:07;;;;;;;30.65;19.20;;;;;;;10.35;100.00;98903.34;4970085;28;20030;-71
2024/03/21 04:57:33;;;;;;;30.80;20.23;;;;;;;10.60;100.00;98948.75;4972827;28;20586;-70
2024/03/21 04:59:58;;;;;;;31.52;20.05;;;;;;;10.38;100.00;98944.66;4970366;28;20044;-71
2024/03/21 05:02:23;;;;;;;30.15;19.95;;;;;;;10.44;100.00;98948.47;4963712;28;20048;-71
2024/03/21 05:04:51;;;;;;;32.70;20.13;;;;;;;10.20;100.00;98908.06;4961725;28;20128;-71
2024/03/21 05:07:17;;;;;;;31.50;20.85;;;;;;;10.18;100.00;98892.63;4979177;28;20049;-72
2024/03/21 05:09:42;;;;;;;30.05;19.67;;;;;;;10.48;100.00;98923.88;4961754;28;20042;-72
2024/03/21 05:12:10;;;;;;;33.35;20.27;;;;;;;10.55;100.00;98925.78;4963463;28;20045;-70
2024/03/21 05:14:35;;;;;;;31.15;20.48;;;;;;;10.46;100.00;98913.59;4962905;28;20022;-70
2024/03/21 05:17:01;;;;;;;30.85;20.40;;;;;;;10.62;100.00;98926.03;4961992;28;20808;-70
2024/03/21 05:19:27;;;;;;;31.13;20.15;;;;;;;10.53;100.00;98945.06;4981140;28;20057;-71
2024/03/21 05:21:53;;;;;;;30.58;19.58;;;;;;;10.26;100.00;98953.47;4962907;28;20073;-71
2024/03/21 05:24:18;;;;;;;31.75;21.13;;;;;;;10.27;100.00;98958.53;4990168;28;20811;-70
2024/03/21 05:26:46;;;;;;;30.65;19.95;;;;;;;10.16;100.00;98950.88;4960693;28;20488;-70
2024/03/21 05:29:16;;;;;;;32.10;19.92;;;;;;;10.12;100.00;98963.31;4962074;28;20034;-69
2024/03/21 05:31:41;;;;;;;34.08;20.08;;;;;;;10.16;100.00;98956.06;4980803;28;20041;-70
2024/03/21 05:34:14;;;;;;;32.03;20.02;;;;;;;10.24;100.00;98945.00;4983026;28;20037;-70
2024/03/21 05:36:39;;;;;;;30.40;20.10;;;;;;;10.29;100.00;98945.41;4991527;28;20636;-69
2024/03/21 05:39:06;;;;;;;31.80;20.33;;;;;;;10.01;100.00;98894.09;4975780;28;20042;-69
2024/03/21 05:41:34;;;;;;;28.92;18.63;;;;;;;10.07;100.00;98907.50;4976564;28;20098;-70
2024/03/21 05:43:59;;;;;;;32.28;20.48;;;;;;;10.32;100.00;98950.38;4966053;28;20041;-70
2024/03/21 05:46:27;;;;;;;31.55;20.30;;;;;;;10.37;100.00;98938.63;4982059;28;20048;-70
2024/03/21 05:48:56;;;;;;;30.98;19.73;;;;;;;10.35;100.00;98944.94;4983696;28;20696;-69
2024/03/21 05:51:22;;;;;;;28.88;18.80;;;;;;;10.43;100.00;98952.06;4980223;28;20099;-71
2024/03/21 05:53:47;;;;;;;30.25;18.70;;;;;;;10.50;100.00;98950.56;4980443;28;20113;-69
2024/03/21 05:56:15;;;;;;;28.73;19.13;;;;;;;10.52;100.00;98956.44;4986950;28;20037;-70
2024/03/21 05:58:40;;;;;;;29.48;19.25;;;;;;;10.28;100.00;98941.19;4975208;28;20493;-70
2024/03/21 06:03:32;;;;;;;30.98;19.30;;;;;;;10.23;100.00;98958.97;4987672;28;20125;-69
2024/03/21 06:05:59;;;;;;;32.97;20.33;;;;;;;10.19;100.00;98954.03;4977469;28;20643;-70
2024/03/21 06:08:24;;;;;;;31.70;20.15;;;;;;;9.98;100.00;98911.72;4972435;28;20034;-69
2024/03/21 06:10:50;;;;;;;29.75;19.45;;;;;;;10.36;100.00;98949.16;4959801;28;20428;-71
2024/03/21 06:13:15;;;;;;;30.33;19.20;;;;;;;10.31;100.00;98953.94;4960716;28;20833;-71
2024/03/21 06:15:41;;;;;;;30.95;20.08;;;;;;;10.33;100.00;98963.25;4970597;28;20066;-69
2024/03/21 06:18:09;;;;;;;29.90;19.23;;;;;;;10.00;100.00;98933.19;4961607;28;20054;-70
2024/03/21 06:20:35;;;;;;;30.33;19.65;;;;;;;10.25;100.00;98965.66;4967117;28;20053;-71
2024/03/21 06:23:02;;;;;;;31.25;19.73;;;;;;;10.27;100.00;98961.16;4977369;28;20030;-68
2024/03/21 06:25:28;;;;;;;31.75;19.80;;;;;;;10.20;100.00;98952.25;4990339;28;20129;-69
2024/03/21 06:27:55;;;;;;;30.50;19.63;;;;;;;10.32;100.00;98961.59;4992110;28;20079;-70
2024/03/21 06:30:24;;;;;;;28.80;18.60;;;;;;;10.41;100.00;98974.75;4993973;28;20121;-70
2024/03/21 06:32:49;;;;;;;26.88;18.13;;;;;;;10.42;100.00;98966.00;4978607;28;20726;-70
2024/03/21 06:35:17;;;;;;;28.60;18.23;;;;;;;10.26;100.00;98963.88;4989465;28;20037;-70
2024/03/21 06:37:42;;;;;;;29.42;18.83;;;;;;;10.36;100.00;98970.78;4976679;28;20113;-70
2024/03/21 06:40:08;;;;;;;27.25;18.27;;;;;;;10.21;100.00;98961.69;4958092;28;20066;-69
2024/03/21 06:42:39;;;;;;;29.20;18.98;;;;;;;9.87;100.00;98927.41;4974790;28;21328;-69
2024/03/21 06:45:07;;;;;;;31.15;18.83;;;;;;;10.13;100.00;98966.72;4967575;28;20131;-70
2024/03/21 06:47:35;;;;;;;31.63;19.02;;;;;;;10.18;100.00;98965.41;4967103;28;20096;-70
2024/03/21 06:50:06;;;;;;;29.10;18.35;;;;;;;10.23;100.00;98958.97;4965056;28;20444;-70
2024/03/21 06:52:34;;;;;;;29.30;19.23;;;;;;;10.21;100.00;98969.50;4965746;28;20041;-70
2024/03/21 06:54:59;;;;;;;29.48;18.98;;;;;;;10.16;100.00;98962.06;4979331;28;20401;-71
2024/03/21 06:57:33;;;;;;;29.52;18.40;;;;;;;10.28;100.00;98962.00;4981492;28;20046;-72
2024/03/21 07:00:01;;;;;;;31.98;19.25;;;;;;;10.37;100.00;98961.22;4966254;28;20039;-70
2024/03/21 07:02:28;;;;;;;30.58;18.55;;;;;;;10.39;100.00;98941.09;4995648;28;20042;-71
2024/03/21 07:04:57;;;;;;;26.08;17.65;;;;;;;10.15;100.00;98928.47;4991491;28;20079;-70
2024/03/21 07:07:22;;;;;;;28.40;18.25;;;;;;;10.16;100.00;98906.69;4962112;28;20445;-70
2024/03/21 07:09:47;;;;;;;28.85;18.58;;;;;;;10.41;100.00;98962.56;4981513;28;20161;-72
2024/03/21 07:12:13;;;;;;;29.05;18.70;;;;;;;10.41;100.00;98952.19;4980885;28;20034;-69
2024/03/21 07:14:41;;;;;;;28.67;17.90;;;;;;;10.29;100.00;98953.22;4974739;28;20147;-71
2024/03/21 07:17:06;;;;;;;28.33;17.52;;;;;;;10.35;100.00;98950.94;4963504;28;20096;-71
2024/03/21 07:19:35;;;;;;;28.83;17.60;;;;;;;10.50;100.00;98953.97;4962218;28;20049;-71
2024/03/21 07:22:06;;;;;;;26.88;17.42;;;;;;;10.23;100.00;98918.19;4983388;28;20048;-71
2024/03/21 07:24:32;;;;;;;29.83;18.70;;;;;;;10.03;100.00;98913.94;4997452;28;20033;-70
2024/03/21 07:27:02;;;;;;;27.77;17.98;;;;;;;10.26;100.00;98949.13;4999518;28;20061;-71
2024/03/21 07:29:30;;;;;;;26.45;17.50;;;;;;;10.29;100.00;98951.44;4990735;28;20068;-69
2024/03/21 07:31:59;;;;;;;28.50;18.48;;;;;;;10.37;100.00;98975.03;4975498;28;20056;-69
2024/03/21 07:34:27;;;;;;;29.75;19.77;;;;;;;10.05;100.00;98932.81;4981667;28;20255;-70
2024/03/21 07:36:52;;;;;;;28.27;17.95;;;;;;;10.38;100.00;98958.44;4972408;28;20116;-71
2024/03/21 07:39:22;;;;;;;31.00;18.50;;;;;;;10.56;100.00;98974.22;4982596;28;20798;-69
2024/03/21 07:41:47;;;;;;;;;;;;;;;10.63;100.00;98990.09;5001554;28;20049;-69
2024/03/21 07:44:13;;;;;;;28.30;16.93;;;;;;;10.48;100.00;98987.09;4976385;28;19924;-68
2024/03/21 07:46:39;;;;;;;28.70;17.85;;;;;;;10.37;100.00;98977.63;4974585;28;20596;-70
2024/03/21 07:49:04;;;;;;;26.85;17.77;;;;;;;10.46;100.00;98989.00;4954635;28;20041;-69
2024/03/21 07:51:29;;;;;;;30.05;18.50;;;;;;;10.36;100.00;98951.75;4965636;28;20042;-69
2024/03/21 07:53:57;;;;;;;26.58;17.50;;;;;;;10.61;100.00;98993.81;4960932;28;20034;-69
2024/03/21 07:56:23;;;;;;;29.70;19.15;;;;;;;10.42;100.00;98946.00;4977638;28;20512;-68
2024/03/21 07:58:48;;;;;;;27.98;18.02;;;;;;;10.78;100.00;98988.72;4978652;28;20041;-70
2024/03/21 08:01:19;;;;;;;27.50;18.27;;;;;;;10.89;100.00;98992.16;4980121;28;20042;-70
2024/03/21 08:03:47;;;;;;;27.67;18.00;;;;;;;11.01;100.00;98993.66;4978828;28;20064;-70
2024/03/21 08:06:14;;;;;;;27.70;17.73;;;;;;;11.16;100.00;98976.66;4962277;28;20048;-69
2024/03/21 08:08:43;;;;;;;27.73;18.13;;;;;;;11.21;100.00;98968.44;4979986;28;20033;-70
2024/03/21 08:11:10;;;;;;;27.67;17.88;;;;;;;11.13;100.00;98968.31;4989677;28;20049;-69
2024/03/21 08:13:36;;;;;;;29.83;18.15;;;;;;;11.13;100.00;98976.97;4978362;28;20057;-70
2024/03/21 08:16:01;;;;;;;26.55;17.85;;;;;;;11.04;100.00;98976.94;4984862;28;20033;-70
2024/03/21 08:18:27;;;;;;;30.92;18.98;;;;;;;10.99;100.00;98973.94;4976841;28;20042;-69
2024/03/21 08:20:55;;;;;;;28.98;17.95;;;;;;;11.12;100.00;98969.28;4986450;28;20034;-68
2024/03/21 08:23:21;;;;;;;30.27;19.20;;;;;;;11.15;100.00;98964.63;4983723;28;20041;-69
2024/03/21 08:25:46;;;;;;;29.55;18.02;;;;;;;11.17;100.00;98961.88;4966981;28;20049;-69
2024/03/21 08:28:12;;;;;;;27.10;18.27;;;;;;;11.26;100.00;98963.66;4969375;28;20509;-68
2024/03/21 08:30:45;;;;;;;25.83;17.45;;;;;;;11.33;100.00;98958.69;4961176;28;20619;-68
2024/03/21 08:33:11;;;;;;;28.65;18.02;;;;;;;11.36;100.00;98961.00;4969899;28;20128;-69
2024/03/21 08:35:36;;;;;;;28.30;17.23;;;;;;;11.37;100.00;98956.63;4962044;28;20444;-69
2024/03/21 08:38:06;;;;;;;28.52;18.50;;;;;;;11.33;100.00;98958.69;4962244;28;20092;-69
2024/03/21 08:40:37;;;;;;;32.05;18.15;;;;;;;11.41;100.00;98966.63;4973984;28;20094;-70
2024/03/21 08:43:03;;;;;;;26.30;18.17;;;;;;;11.50;100.00;98967.56;4975389;28;20054;-69
2024/03/21 08:45:30;;;;;;;30.38;18.50;;;;;;;11.59;100.00;98976.28;4975894;28;20132;-68
2024/03/21 08:47:57;;;;;;;27.13;18.02;;;;;;;11.67;100.00;98979.00;4979686;28;20101;-68
2024/03/21 08:50:23;;;;;;;28.13;19.23;;;;;;;11.69;100.00;98975.28;4976837;28;20035;-69
2024/03/21 08:52:50;;;;;;;32.05;18.23;;;;;;;11.73;100.00;98970.63;4979883;28;20051;-69
2024/03/21 08:55:16;;;;;;;25.85;17.63;;;;;;;11.80;100.00;98963.06;4971586;28;20046;-68
2024/03/21 08:57:43;;;;;;;25.38;17.58;;;;;;;11.87;100.00;98966.72;4981887;28;20041;-69
2024/03/21 09:00:09;;;;;;;28.15;18.38;;;;;;;11.97;100.00;98964.09;4973637;28;20049;-69
2024/03/21 09:02:35;;;;;;;26.40;17.83;;;;;;;12.02;100.00;98967.91;4973565;28;20590;-69
2024/03/21 09:05:00;;;;;;;28.75;18.25;;;;;;;11.78;100.00;98937.16;4976745;28;20044;-68
2024/03/21 09:07:26;;;;;;;28.98;19.23;;;;;;;11.85;100.00;98966.06;4965295;28;20038;-69
2024/03/21 09:09:51;;;;;;;26.33;18.23;;;;;;;11.80;100.00;98965.66;4975352;28;20689;-69
2024/03/21 09:12:19;;;;;;;28.60;17.90;;;;;;;11.65;100.00;98921.84;4965176;28;20037;-69
2024/03/21 09:14:44;;;;;;;26.67;16.58;;;;;;;11.92;100.00;98957.53;4963570;28;20785;-70
2024/03/21 09:17:10;;;;;;;28.42;17.25;;;;;;;11.99;100.00;98964.78;4978982;28;20041;-70
2024/03/21 09:19:35;;;;;;;22.77;16.17;;;;;;;12.11;100.00;98959.22;4979545;28;20041;-69
2024/03/21 09:22:01;;;;;;;24.73;17.35;;;;;;;12.17;100.00;98959.59;4958784;28;20046;-69
2024/03/21 09:24:30;;;;;;;35.42;21.85;;;;;;;12.20;100.00;98957.53;4967012;28;20638;-68
2024/03/21 09:26:56;;;;;;;35.47;22.42;;;;;;;12.31;100.00;98951.28;4997544;28;20127;-70
2024/03/21 09:29:24;;;;;;;33.47;21.15;;;;;;;12.39;100.00;98947.94;4977284;28;20484;-70
2024/03/21 09:31:50;;;;;;;25.73;16.85;;;;;;;12.46;100.00;98941.97;4962556;28;20468;-69
2024/03/21 09:34:15;;;;;;;24.70;16.77;;;;;;;12.49;100.00;98946.91;4980261;28;20041;-70
2024/03/21 09:36:40;;;;;;;22.70;15.82;;;;;;;12.64;100.00;98933.34;4978159;28;20535;-68
2024/03/21 09:39:06;;;;;;;27.85;17.83;;;;;;;12.58;100.00;98926.94;4974524;28;20041;-69
2024/03/21 09:41:32;;;;;;;23.63;15.75;;;;;;;12.60;100.00;98919.78;4971338;28;20033;-68
2024/03/21 09:44:01;;;;;;;23.98;15.48;;;;;;;12.64;100.00;98905.44;4944229;28;20038;-69
2024/03/21 09:46:30;;;;;;;27.42;16.67;;;;;;;12.80;100.00;98922.22;4958405;28;20042;-68
2024/03/21 09:48:56;;;;;;;22.38;14.57;;;;;;;12.91;100.00;98905.50;4945018;28;20692;-68
2024/03/21 09:51:23;;;;;;;21.50;13.65;;;;;;;13.07;100.00;98913.44;4947376;28;20042;-69
2024/03/21 09:53:51;;;;;;;19.23;12.15;;;;;;;13.21;100.00;98910.25;4959243;28;20144;-69
2024/03/21 09:56:16;;;;;;;20.30;13.43;;;;;;;13.27;100.00;98907.03;4951193;28;20180;-69
2024/03/21 09:58:48;;;;;;;17.38;11.27;;;;;;;13.50;99.94;98893.47;4957812;28;20035;-69
2024/03/21 10:01:21;;;;;;;17.88;11.77;;;;;;;13.73;100.00;98888.50;4955485;28;20164;-68
2024/03/21 10:03:56;;;;;;;17.92;10.48;;;;;;;13.58;99.47;98838.66;4943092;28;20034;-69
2024/03/21 10:06:24;;;;;;;16.85;11.18;;;;;;;13.68;99.15;98854.19;4952200;28;20055;-70
2024/03/21 10:08:54;;;;;;;18.00;11.02;;;;;;;13.93;99.51;98873.38;4960325;28;20066;-68
2024/03/21 10:11:22;;;;;;;16.55;10.35;;;;;;;14.12;99.99;98874.06;4971558;28;20733;-70
2024/03/21 10:13:48;;;;;;;17.13;10.50;;;;;;;14.58;97.30;98875.28;4974880;28;20062;-69
2024/03/21 10:16:18;;;;;;;17.80;10.20;;;;;;;14.83;94.86;98879.69;4928598;28;20134;-69
2024/03/21 10:18:46;;;;;;;16.88;10.70;;;;;;;15.08;95.91;98889.13;4938628;28;20497;-68
2024/03/21 10:21:23;;;;;;;16.05;10.02;;;;;;;15.13;93.12;98878.13;4940285;28;20042;-69
2024/03/21 10:24:02;;;;;;;14.88;9.60;;;;;;;15.26;93.18;98878.44;4959068;28;20049;-68
2024/03/21 10:26:29;;;;;;;16.80;9.90;;;;;;;15.37;91.30;98879.88;4950681;28;20130;-69
2024/03/21 10:28:54;;;;;;;15.13;9.55;;;;;;;15.39;90.38;98880.53;4947658;28;20030;-70
2024/03/21 10:31:21;;;;;;;15.40;10.15;;;;;;;15.32;88.38;98874.34;4963587;28;20038;-69
2024/03/21 10:33:47;;;;;;;14.63;9.60;;;;;;;15.40;89.87;98865.63;4949856;28;20288;-69
2024/03/21 10:36:15;;;;;;;16.25;10.35;;;;;;;15.54;88.15;98875.41;4953809;28;20045;-69
2024/03/21 10:38:41;;;;;;;15.35;10.73;;;;;;;15.69;87.21;98872.88;4955180;28;20118;-69
2024/03/21 10:41:11;;;;;;;16.48;10.10;;;;;;;15.72;86.75;98862.06;4964528;28;20045;-70
2024/03/21 10:43:39;;;;;;;16.55;9.57;;;;;;;15.60;86.22;98851.13;4979113;28;20467;-69
2024/03/21 10:46:07;;;;;;;15.30;10.40;;;;;;;15.59;86.33;98844.25;4982541;28;20161;-67
2024/03/21 10:48:32;;;;;;;17.48;11.60;;;;;;;15.67;85.01;98840.78;4980068;28;20056;-68
2024/03/21 10:51:14;;;;;;;17.42;10.82;;;;;;;15.71;86.61;98839.44;4960184;28;20046;-70
2024/03/21 10:53:39;;;;;;;17.92;11.70;;;;;;;16.01;85.57;98829.97;4967841;28;20421;-70
2024/03/21 10:56:10;;;;;;;18.75;12.07;;;;;;;16.33;85.27;98825.44;4964224;28;20035;-69
2024/03/21 10:58:42;;;;;;;17.55;11.93;;;;;;;16.31;85.91;98817.75;4972678;28;20078;-70
2024/03/21 11:01:12;;;;;;;17.17;12.05;;;;;;;16.37;84.69;98825.91;4976893;28;20030;-70
2024/03/21 11:03:52;;;;;;;15.18;11.10;;;;;;;16.39;84.45;98818.69;4972839;28;20095;-69
2024/03/21 11:06:24;;;;;;;15.73;10.95;;;;;;;16.32;87.78;98818.59;4963662;28;20112;-70
2024/03/21 11:08:53;;;;;;;18.88;12.48;;;;;;;16.21;88.98;98811.94;4981577;28;20071;-70
2024/03/21 11:11:19;;;;;;;;;;;;;;;16.43;86.97;98818.16;4962876;28;20120;-70
2024/03/21 11:13:45;;;;;;;15.68;10.93;;;;;;;16.31;87.27;98814.31;4981164;28;19913;-70
2024/03/21 11:16:10;;;;;;;17.23;11.60;;;;;;;16.21;88.50;98790.97;5002063;28;20056;-69